createdAt,value
2023-01-19T00:01:45.047Z,98404.09
2023-01-19T00:04:13.585Z,98409.77
2023-01-19T00:06:44.515Z,98416.67
2023-01-19T00:09:12.927Z,98425.64
2023-01-19T00:11:52.929Z,98429.59
2023-01-19T00:14:21.639Z,98429.77
2023-01-19T00:16:50.493Z,98432.37
2023-01-19T00:19:18.899Z,98433.95
2023-01-19T00:21:47.525Z,98435.67
2023-01-19T00:24:18.905Z,98439.44
2023-01-19T00:26:47.982Z,98444.08
2023-01-19T00:29:16.524Z,98450.98
2023-01-19T00:31:45.308Z,98454.84
2023-01-19T00:34:13.743Z,98458.16
2023-01-19T00:36:42.427Z,98457.99
2023-01-19T00:39:10.935Z,98460.91
2023-01-19T00:41:57.601Z,98466.27
2023-01-19T00:44:26.042Z,98469.38
2023-01-19T00:47:05.807Z,98476.45
2023-01-19T00:49:34.392Z,98482.10
2023-01-19T00:52:02.631Z,98490.34
2023-01-19T00:54:40.030Z,98489.70
2023-01-19T00:57:15.744Z,98493.01
2023-01-19T00:59:58.006Z,98492.15
2023-01-19T01:02:26.634Z,98491.23
2023-01-19T01:05:03.964Z,98488.31
2023-01-19T01:07:40.934Z,98488.30
2023-01-19T01:10:16.647Z,98491.40
2023-01-19T01:12:57.427Z,98499.13
2023-01-19T01:15:29.825Z,98492.63
2023-01-19T01:17:58.321Z,98495.52
2023-01-19T01:20:33.785Z,98495.54
2023-01-19T01:23:02.817Z,98488.83
2023-01-19T01:25:38.806Z,98492.61
2023-01-19T01:28:09.948Z,98496.57
2023-01-19T01:30:41.311Z,98496.27
2023-01-19T01:33:41.356Z,98497.66
2023-01-19T01:36:07.304Z,98507.09
2023-01-19T01:38:36.312Z,98509.85
2023-01-19T01:41:04.978Z,98512.47
2023-01-19T01:43:51.822Z,98515.75
2023-01-19T01:46:29.255Z,98515.92
2023-01-19T01:49:23.980Z,98514.39
2023-01-19T01:52:15.432Z,98516.33
2023-01-19T01:54:44.183Z,98520.61
2023-01-19T01:57:23.239Z,98521.16
2023-01-19T02:00:04.022Z,98524.84
2023-01-19T02:02:55.339Z,98524.89
2023-01-19T02:05:35.542Z,98526.10
2023-01-19T02:08:51.024Z,98528.88
2023-01-19T02:11:38.248Z,98528.59
2023-01-19T02:14:07.216Z,98529.14
2023-01-19T02:16:38.498Z,98535.89
2023-01-19T02:19:15.485Z,98540.10
2023-01-19T02:22:08.250Z,98545.12
2023-01-19T02:24:36.985Z,98547.38
2023-01-19T02:27:06.758Z,98553.80
2023-01-19T02:29:35.882Z,98562.44
2023-01-19T02:32:08.403Z,98567.48
2023-01-19T02:34:37.113Z,98571.59
2023-01-19T02:37:12.308Z,98576.09
2023-01-19T02:40:02.777Z,98574.70
2023-01-19T02:42:58.632Z,98576.74
2023-01-19T02:45:27.864Z,98575.04
2023-01-19T02:48:33.483Z,98575.77
2023-01-19T02:51:19.230Z,98576.81
2023-01-19T02:54:04.105Z,98572.24
2023-01-19T02:57:40.603Z,98565.20
2023-01-19T03:00:35.127Z,98565.07
2023-01-19T03:03:52.694Z,98571.96
2023-01-19T03:06:46.369Z,98581.95
2023-01-19T03:09:41.501Z,98587.48
2023-01-19T03:12:33.067Z,98591.10
2023-01-19T03:15:19.587Z,98591.30
2023-01-19T03:18:08.403Z,98595.80
2023-01-19T03:21:17.365Z,98604.73
2023-01-19T03:23:51.106Z,98609.36
2023-01-19T03:27:31.346Z,98605.41
2023-01-19T03:30:30.458Z,98604.40
2023-01-19T03:33:27.568Z,98603.80
2023-01-19T03:36:03.892Z,98605.52
2023-01-19T03:38:40.871Z,98610.82
2023-01-19T03:41:26.737Z,98611.67
2023-01-19T03:44:39.089Z,98612.59
2023-01-19T03:47:13.394Z,98617.13
2023-01-19T03:50:02.793Z,98615.87
2023-01-19T03:52:33.725Z,98611.35
2023-01-19T03:55:11.141Z,98611.11
2023-01-19T03:58:03.134Z,98614.83
2023-01-19T04:01:04.803Z,98619.60
2023-01-19T04:03:59.389Z,98621.56
2023-01-19T04:06:30.309Z,98624.48
2023-01-19T04:09:25.003Z,98621.93
2023-01-19T04:12:13.704Z,98630.45
2023-01-19T04:14:45.593Z,98634.83
2023-01-19T04:17:36.879Z,98643.38
2023-01-19T04:20:09.846Z,98644.14
2023-01-19T04:22:41.205Z,98639.05
2023-01-19T04:25:13.414Z,98641.02
2023-01-19T04:27:54.622Z,98639.55
2023-01-19T04:30:43.439Z,98644.39
2023-01-19T04:33:11.999Z,98648.30
2023-01-19T04:35:40.891Z,98650.35
2023-01-19T04:38:15.659Z,98649.67
2023-01-19T04:40:47.134Z,98652.23
2023-01-19T04:43:16.016Z,98654.14
2023-01-19T04:46:04.796Z,98647.44
2023-01-19T04:48:41.181Z,98649.16
2023-01-19T04:51:34.496Z,98650.98
2023-01-19T04:54:03.384Z,98655.48
2023-01-19T04:57:05.477Z,98655.48
2023-01-19T04:59:55.552Z,98655.83
2023-01-19T05:02:27.429Z,98651.85
2023-01-19T05:05:27.177Z,98655.15
2023-01-19T05:08:36.395Z,98653.68
2023-01-19T05:11:07.742Z,98654.06
2023-01-19T05:13:38.656Z,98659.95
2023-01-19T05:16:10.417Z,98664.83
2023-01-19T05:18:55.208Z,98663.83
2023-01-19T05:21:46.801Z,98665.39
2023-01-19T05:24:20.992Z,98670.23
2023-01-19T05:27:04.414Z,98672.14
2023-01-19T05:29:53.387Z,98669.90
2023-01-19T05:33:04.913Z,98670.95
2023-01-19T05:35:36.702Z,98672.88
2023-01-19T05:38:10.854Z,98670.32
2023-01-19T05:40:58.489Z,98666.91
2023-01-19T05:43:30.029Z,98662.99
2023-01-19T05:46:00.923Z,98660.63
2023-01-19T05:48:32.370Z,98660.16
2023-01-19T05:51:24.895Z,98660.04
2023-01-19T05:54:06.593Z,98659.23
2023-01-19T05:56:38.029Z,98660.61
2023-01-19T05:59:26.791Z,98663.56
2023-01-19T06:02:04.189Z,98659.66
2023-01-19T06:04:36.491Z,98665.51
2023-01-19T06:07:07.127Z,98670.17
2023-01-19T06:09:35.763Z,98670.05
2023-01-19T06:12:27.834Z,98669.95
2023-01-19T06:15:06.297Z,98667.96
2023-01-19T06:17:37.792Z,98673.02
2023-01-19T06:20:09.706Z,98672.86
2023-01-19T06:22:38.871Z,98675.96
2023-01-19T06:25:10.328Z,98684.92
2023-01-19T06:28:22.087Z,98692.34
2023-01-19T06:31:11.868Z,98695.83
2023-01-19T06:33:40.473Z,98700.35
2023-01-19T06:36:09.765Z,98704.85
2023-01-19T06:38:38.554Z,98709.68
2023-01-19T06:41:06.756Z,98710.41
2023-01-19T06:43:55.251Z,98717.12
2023-01-19T06:46:36.117Z,98719.72
2023-01-19T06:49:39.994Z,98723.84
2023-01-19T06:52:12.476Z,98727.98
2023-01-19T06:54:51.536Z,98732.64
2023-01-19T06:57:20.582Z,98735.36
2023-01-19T06:59:51.023Z,98741.21
2023-01-19T07:03:05.149Z,98745.68
2023-01-19T07:06:02.594Z,98754.10
2023-01-19T07:08:30.905Z,98762.16
2023-01-19T07:11:25.880Z,98766.14
2023-01-19T07:14:34.093Z,98771.82
2023-01-19T07:17:19.688Z,98774.05
2023-01-19T07:19:48.275Z,98778.67
2023-01-19T07:22:37.640Z,98779.18
2023-01-19T07:25:45.331Z,98782.76
2023-01-19T07:28:43.165Z,98787.35
2023-01-19T07:31:21.342Z,98790.93
2023-01-19T07:33:52.456Z,98788.36
2023-01-19T07:36:41.644Z,98785.95
2023-01-19T07:39:10.377Z,98782.02
2023-01-19T07:41:42.210Z,98783.56
2023-01-19T07:44:30.952Z,98786.34
2023-01-19T07:47:14.000Z,98790.10
2023-01-19T07:49:42.684Z,98797.65
2023-01-19T07:52:14.063Z,98807.77
2023-01-19T07:54:59.390Z,98811.91
2023-01-19T07:57:31.447Z,98816.88
2023-01-19T08:00:00.279Z,98813.29
2023-01-19T08:02:36.141Z,98809.01
2023-01-19T08:05:07.259Z,98811.08
2023-01-19T08:07:35.650Z,98807.31
2023-01-19T08:10:16.277Z,98803.53
2023-01-19T08:12:48.239Z,98803.02
2023-01-19T08:15:26.210Z,98800.79
2023-01-19T08:17:59.442Z,98804.57
2023-01-19T08:24:01.838Z,98804.93
2023-01-19T08:26:33.105Z,98804.93
2023-01-19T08:29:04.739Z,98806.11
2023-01-19T08:31:39.651Z,98806.81
2023-01-19T08:34:30.408Z,98802.17
2023-01-19T08:36:59.861Z,98800.95
2023-01-19T08:39:59.929Z,98803.36
2023-01-19T08:42:48.932Z,98802.15
2023-01-19T08:45:17.586Z,98803.85
2023-01-19T08:47:46.382Z,98801.98
2023-01-19T08:50:23.715Z,98797.70
2023-01-19T08:53:02.188Z,98800.26
2023-01-19T08:56:01.383Z,98800.25
2023-01-19T08:59:07.607Z,98803.16
2023-01-19T09:01:37.836Z,98803.98
2023-01-19T09:04:06.787Z,98804.30
2023-01-19T09:06:48.291Z,98803.92
2023-01-19T09:09:17.037Z,98804.08
2023-01-19T09:12:26.784Z,98809.74
2023-01-19T09:14:55.528Z,98809.70
2023-01-19T09:17:44.843Z,98813.12
2023-01-19T09:20:46.515Z,98818.27
2023-01-19T09:23:39.972Z,98825.80
2023-01-19T09:26:39.325Z,98828.01
2023-01-19T09:29:08.036Z,98829.02
2023-01-19T09:31:57.308Z,98830.18
2023-01-19T09:34:31.639Z,98831.55
2023-01-19T09:37:15.068Z,98834.14
2023-01-19T09:40:15.251Z,98831.02
2023-01-19T09:42:56.410Z,98836.48
2023-01-19T09:45:36.379Z,98836.98
2023-01-19T09:48:38.255Z,98836.95
2023-01-19T09:51:17.916Z,98841.56
2023-01-19T09:54:39.366Z,98839.48
2023-01-19T09:57:34.702Z,98840.48
2023-01-19T10:00:35.282Z,98838.23
2023-01-19T10:03:47.321Z,98834.06
2023-01-19T10:06:18.531Z,98828.23
2023-01-19T10:08:59.369Z,98826.81
2023-01-19T10:11:51.986Z,98825.06
2023-01-19T10:14:52.309Z,98826.59
2023-01-19T10:18:01.644Z,98836.67
2023-01-19T10:20:36.633Z,98838.37
2023-01-19T10:23:17.508Z,98842.15
2023-01-19T10:25:46.978Z,98842.13
2023-01-19T10:28:47.307Z,98843.61
2023-01-19T10:31:19.394Z,98846.50
2023-01-19T10:34:02.607Z,98845.61
2023-01-19T10:36:58.087Z,98845.75
2023-01-19T10:39:35.778Z,98845.02
2023-01-19T10:42:20.106Z,98847.09
2023-01-19T10:44:58.652Z,98843.25
2023-01-19T10:47:40.004Z,98840.27
2023-01-19T10:50:30.184Z,98836.29
2023-01-19T10:53:01.479Z,98835.91
2023-01-19T10:55:44.525Z,98836.89
2023-01-19T10:58:35.627Z,98837.37
2023-01-19T11:01:24.006Z,98838.66
2023-01-19T11:04:07.352Z,98830.59
2023-01-19T11:06:41.123Z,98820.80
2023-01-19T11:09:29.513Z,98822.35
2023-01-19T11:12:00.647Z,98816.27
2023-01-19T11:14:32.481Z,98814.67
2023-01-19T11:17:41.428Z,98816.46
2023-01-19T11:20:44.221Z,98816.55
2023-01-19T11:23:47.238Z,98814.62
2023-01-19T11:26:29.328Z,98810.25
2023-01-19T11:29:25.418Z,98810.42
2023-01-19T11:31:55.394Z,98805.73
2023-01-19T11:34:50.770Z,98806.21
2023-01-19T11:37:19.193Z,98807.88
2023-01-19T11:40:10.230Z,98813.50
2023-01-19T11:42:38.926Z,98814.48
2023-01-19T11:45:22.753Z,98813.20
2023-01-19T11:47:52.758Z,98813.37
2023-01-19T11:50:44.719Z,98814.31
2023-01-19T11:53:13.291Z,98809.62
2023-01-19T11:55:57.565Z,98808.73
2023-01-19T11:58:27.043Z,98810.98
2023-01-19T12:01:05.674Z,98807.75
2023-01-19T12:03:54.887Z,98805.98
2023-01-19T12:06:47.840Z,98803.71
2023-01-19T12:09:44.161Z,98808.17
2023-01-19T12:12:23.255Z,98812.83
2023-01-19T12:15:23.754Z,98812.16
2023-01-19T12:17:58.679Z,98813.90
2023-01-19T12:20:59.383Z,98811.16
2023-01-19T12:23:46.425Z,98809.73
2023-01-19T12:26:57.455Z,98810.66
2023-01-19T12:29:54.273Z,98808.56
2023-01-19T12:32:36.984Z,98802.86
2023-01-19T12:35:06.567Z,98801.11
2023-01-19T12:37:39.317Z,98801.39
2023-01-19T12:40:37.893Z,98800.01
2023-01-19T12:43:06.827Z,98795.73
2023-01-19T12:45:40.081Z,98795.58
2023-01-19T12:48:41.538Z,98791.56
2023-01-19T12:51:22.204Z,98792.54
2023-01-19T12:54:01.341Z,98791.45
2023-01-19T12:56:43.952Z,98787.81
2023-01-19T12:59:28.808Z,98781.28
2023-01-19T13:02:42.115Z,98775.76
2023-01-19T13:05:19.869Z,98782.96
2023-01-19T13:08:11.607Z,98777.48
2023-01-19T13:11:27.106Z,98774.04
2023-01-19T13:14:26.200Z,98776.63
2023-01-19T13:17:30.349Z,98773.04
2023-01-19T13:21:03.247Z,98772.15
2023-01-19T13:23:50.252Z,98770.76
2023-01-19T13:26:42.187Z,98768.71
2023-01-19T13:30:01.103Z,98765.48
2023-01-19T13:32:55.328Z,98762.67
2023-01-19T13:36:09.357Z,98773.21
2023-01-19T13:38:42.026Z,98785.05
2023-01-19T13:41:18.807Z,98778.98
2023-01-19T13:44:10.329Z,98781.88
2023-01-19T13:46:39.883Z,98779.80
2023-01-19T13:49:14.717Z,98780.48
2023-01-19T13:52:43.078Z,98784.30
2023-01-19T13:55:16.751Z,98777.44
2023-01-19T13:57:47.835Z,98774.79
2023-01-19T14:00:49.498Z,98775.48
2023-01-19T14:03:23.863Z,98771.54
2023-01-19T14:06:02.270Z,98772.39
2023-01-19T14:08:47.737Z,98777.20
2023-01-19T14:11:36.629Z,98779.08
2023-01-19T14:15:15.995Z,98775.80
2023-01-19T14:17:45.129Z,98771.29
2023-01-19T14:20:30.413Z,98771.77
2023-01-19T14:22:58.854Z,98772.04
2023-01-19T14:25:45.067Z,98775.17
2023-01-19T14:28:32.317Z,98778.69
2023-01-19T14:31:06.434Z,98784.80
2023-01-19T14:34:21.937Z,98785.03
2023-01-19T14:37:21.496Z,98790.11
2023-01-19T14:39:52.886Z,98789.48
2023-01-19T14:42:35.622Z,98789.17
2023-01-19T14:45:47.138Z,98790.41
2023-01-19T14:48:53.942Z,98790.63
2023-01-19T14:51:56.152Z,98791.16
2023-01-19T14:55:26.224Z,98795.74
2023-01-19T14:58:18.268Z,98800.27
2023-01-19T15:00:58.428Z,98800.15
2023-01-19T15:03:48.290Z,98800.38
2023-01-19T15:06:31.698Z,98802.02
2023-01-19T15:09:20.287Z,98804.70
2023-01-19T15:11:52.682Z,98807.85
2023-01-19T15:14:35.826Z,98809.27
2023-01-19T15:18:04.836Z,98809.29
2023-01-19T15:20:42.412Z,98806.06
2023-01-19T15:23:12.045Z,98809.55
2023-01-19T15:25:44.034Z,98810.27
2023-01-19T15:28:43.930Z,98813.77
2023-01-19T15:31:30.019Z,98817.75
2023-01-19T15:34:03.877Z,98819.75
2023-01-19T15:36:41.763Z,98820.73
2023-01-19T15:39:34.840Z,98818.52
2023-01-19T15:42:09.837Z,98820.56
2023-01-19T15:44:41.740Z,98824.88
2023-01-19T15:47:12.754Z,98823.70
2023-01-19T15:49:55.983Z,98829.55
2023-01-19T15:52:24.580Z,98833.36
2023-01-19T15:54:56.013Z,98832.07
2023-01-19T15:57:38.988Z,98835.38
2023-01-19T16:00:10.955Z,98841.92
2023-01-19T16:02:47.234Z,98842.80
2023-01-19T16:05:43.571Z,98844.90
2023-01-19T16:08:12.452Z,98844.60
2023-01-19T16:10:48.582Z,98843.05
2023-01-19T16:13:19.446Z,98846.96
2023-01-19T16:15:47.934Z,98850.56
2023-01-19T16:18:34.441Z,98857.45
2023-01-19T16:21:03.095Z,98861.54
2023-01-19T16:23:34.009Z,98859.30
2023-01-19T16:26:08.733Z,98865.14
2023-01-19T16:28:51.291Z,98872.50
2023-01-19T16:31:28.445Z,98874.71
2023-01-19T16:33:59.473Z,98880.89
2023-01-19T16:36:30.361Z,98882.96
2023-01-19T16:39:04.442Z,98885.91
2023-01-19T16:41:33.967Z,98892.30
2023-01-19T16:44:03.742Z,98895.41
2023-01-19T16:46:35.816Z,98896.15
2023-01-19T16:49:28.415Z,98899.42
2023-01-19T16:51:58.545Z,98900.30
2023-01-19T16:54:47.429Z,98904.27
2023-01-19T16:57:37.159Z,98907.38
2023-01-19T17:00:49.037Z,98907.06
2023-01-19T17:03:48.314Z,98910.52
2023-01-19T17:06:20.504Z,98909.19
2023-01-19T17:08:50.427Z,98909.00
2023-01-19T17:11:37.513Z,98912.45
2023-01-19T17:14:22.787Z,98914.70
2023-01-19T17:17:00.985Z,98910.92
2023-01-19T17:19:29.208Z,98913.16
2023-01-19T17:22:21.440Z,98916.42
2023-01-19T17:25:05.462Z,98919.70
2023-01-19T17:28:14.443Z,98922.98
2023-01-19T17:31:08.554Z,98920.69
2023-01-19T17:33:41.053Z,98923.59
2023-01-19T17:36:31.772Z,98924.66
2023-01-19T17:39:07.372Z,98933.10
2023-01-19T17:41:37.425Z,98933.80
2023-01-19T17:44:13.519Z,98936.89
2023-01-19T17:46:51.077Z,98934.98
2023-01-19T17:49:19.634Z,98935.31
2023-01-19T17:51:58.002Z,98938.59
2023-01-19T17:54:29.839Z,98937.39
2023-01-19T17:57:18.192Z,98940.13
2023-01-19T17:59:47.984Z,98944.42
2023-01-19T18:02:26.278Z,98945.93
2023-01-19T18:04:54.919Z,98948.30
2023-01-19T18:07:32.464Z,98948.27
2023-01-19T18:10:03.558Z,98945.50
2023-01-19T18:12:31.807Z,98948.73
2023-01-19T18:15:00.516Z,98950.79
2023-01-19T18:17:31.353Z,98956.13
2023-01-19T18:19:59.698Z,98960.08
2023-01-19T18:22:36.822Z,98963.16
2023-01-19T18:25:05.384Z,98963.86
2023-01-19T18:27:44.468Z,98966.61
2023-01-19T18:30:22.533Z,98969.71
2023-01-19T18:32:52.305Z,98964.75
2023-01-19T18:35:23.494Z,98968.90
2023-01-19T18:38:24.256Z,98964.45
2023-01-19T18:41:21.857Z,98961.70
2023-01-19T18:43:59.721Z,98962.77
2023-01-19T18:46:46.603Z,98962.61
2023-01-19T18:49:14.898Z,98968.12
2023-01-19T18:51:58.336Z,98972.77
2023-01-19T18:54:52.961Z,98975.00
2023-01-19T18:57:57.588Z,98976.73
2023-01-19T19:00:29.107Z,98976.74
2023-01-19T19:02:58.580Z,98976.41
2023-01-19T19:06:01.398Z,98974.53
2023-01-19T19:09:28.727Z,98979.73
2023-01-19T19:11:57.285Z,98982.15
2023-01-19T19:14:33.310Z,98982.16
2023-01-19T19:17:11.070Z,98987.84
2023-01-19T19:19:39.338Z,98990.07
2023-01-19T19:22:27.871Z,98988.85
2023-01-19T19:24:56.145Z,98989.39
2023-01-19T19:27:27.539Z,98987.15
2023-01-19T19:30:12.435Z,98987.52
2023-01-19T19:32:46.416Z,98991.46
2023-01-19T19:35:18.909Z,99001.09
2023-01-19T19:37:48.500Z,98999.88
2023-01-19T19:40:27.048Z,99001.25
2023-01-19T19:42:58.287Z,99007.96
2023-01-19T19:45:27.155Z,99010.19
2023-01-19T19:47:57.683Z,99008.98
2023-01-19T19:51:17.067Z,99018.07
2023-01-19T19:53:50.842Z,99023.02
2023-01-19T19:56:30.908Z,99021.13
2023-01-19T19:59:19.945Z,99022.14
2023-01-19T20:01:51.205Z,99024.87
2023-01-19T20:04:21.473Z,99020.08
2023-01-19T20:07:00.472Z,99023.85
2023-01-19T20:09:37.871Z,99024.20
2023-01-19T20:12:06.501Z,99023.33
2023-01-19T20:14:41.288Z,99024.71
2023-01-19T20:17:09.536Z,99025.58
2023-01-19T20:19:38.029Z,99028.33
2023-01-19T20:22:07.239Z,99028.15
2023-01-19T20:24:35.691Z,99025.08
2023-01-19T20:27:11.577Z,99024.39
2023-01-19T20:29:40.050Z,99024.21
2023-01-19T20:32:09.308Z,99019.73
2023-01-19T20:34:55.526Z,99025.92
2023-01-19T20:37:23.706Z,99025.91
2023-01-19T20:40:03.777Z,99021.30
2023-01-19T20:42:41.500Z,99020.28
2023-01-19T20:45:21.629Z,99021.83
2023-01-19T20:47:55.616Z,99021.16
2023-01-19T20:50:25.119Z,99019.28
2023-01-19T20:53:11.285Z,99020.33
2023-01-19T20:55:39.974Z,99018.96
2023-01-19T20:58:18.701Z,99019.31
2023-01-19T21:01:11.994Z,99022.41
2023-01-19T21:03:58.559Z,99025.16
2023-01-19T21:06:36.754Z,99027.56
2023-01-19T21:09:10.517Z,99030.64
2023-01-19T21:11:39.856Z,99027.55
2023-01-19T21:14:17.288Z,99029.78
2023-01-19T21:16:52.160Z,99030.12
2023-01-19T21:19:24.356Z,99030.64
2023-01-19T21:22:01.368Z,99035.09
2023-01-19T21:24:29.786Z,99031.67
2023-01-19T21:26:58.827Z,99035.29
2023-01-19T21:29:27.337Z,99029.13
2023-01-19T21:31:55.798Z,99031.52
2023-01-19T21:34:33.348Z,99031.86
2023-01-19T21:37:01.743Z,99034.95
2023-01-19T21:39:30.216Z,99033.43
2023-01-19T21:41:58.527Z,99033.59
2023-01-19T21:44:27.367Z,99039.79
2023-01-19T21:46:59.194Z,99039.10
2023-01-19T21:49:27.925Z,99043.05
2023-01-19T21:51:56.226Z,99045.26
2023-01-19T21:54:24.517Z,99050.75
2023-01-19T21:56:52.987Z,99047.83
2023-01-19T21:59:21.346Z,99051.44
2023-01-19T22:01:53.484Z,99051.09
2023-01-19T22:04:22.423Z,99053.82
2023-01-19T22:06:50.972Z,99052.10
2023-01-19T22:09:19.808Z,99052.95
2023-01-19T22:11:50.530Z,99054.98
2023-01-19T22:14:28.029Z,99054.64
2023-01-19T22:16:56.426Z,99053.26
2023-01-19T22:19:28.124Z,99054.98
2023-01-19T22:21:56.480Z,99051.71
2023-01-19T22:24:39.705Z,99052.21
2023-01-19T22:27:09.054Z,99049.80
2023-01-19T22:29:45.020Z,99054.45
2023-01-19T22:32:13.241Z,99052.73
2023-01-19T22:34:42.021Z,99054.64
2023-01-19T22:37:10.277Z,99054.98
2023-01-19T22:39:39.132Z,99059.98
2023-01-19T22:42:07.609Z,99061.00
2023-01-19T22:44:46.027Z,99061.67
2023-01-19T22:47:14.305Z,99064.60
2023-01-19T22:49:42.610Z,99068.55
2023-01-19T22:52:11.067Z,99072.16
2023-01-19T22:54:39.369Z,99070.44
2023-01-19T22:57:11.324Z,99075.42
2023-01-19T22:59:43.806Z,99079.90
2023-01-19T23:02:14.360Z,99083.17
2023-01-19T23:04:43.110Z,99087.63
2023-01-19T23:07:18.749Z,99089.54
2023-01-19T23:09:47.813Z,99093.99
2023-01-19T23:12:16.595Z,99095.38
2023-01-19T23:14:45.467Z,99098.66
2023-01-19T23:17:13.896Z,99099.51
2023-01-19T23:19:42.681Z,99105.52
2023-01-19T23:22:10.944Z,99107.57
2023-01-19T23:24:39.238Z,99110.67
2023-01-19T23:27:08.225Z,99107.92
2023-01-19T23:29:46.131Z,99109.29
2023-01-19T23:32:14.861Z,99110.49
2023-01-19T23:34:43.518Z,99109.63
2023-01-19T23:37:14.972Z,99108.77
2023-01-19T23:39:43.577Z,99112.21
2023-01-19T23:42:12.145Z,99112.55
2023-01-19T23:44:42.184Z,99111.36
2023-01-19T23:47:10.453Z,99113.94
2023-01-19T23:49:40.392Z,99114.61
2023-01-19T23:52:08.732Z,99112.90
2023-01-19T23:54:37.478Z,99115.47
2023-01-19T23:57:06.263Z,99115.47
2023-01-19T23:59:43.475Z,99119.41
